<?xml version="1.0" encoding="UTF-8" standalone="no" ?>
<gpx xmlns="http://www.topografix.com/GPX/1/1" xmlns:xsi="http://www.w3.org/2001/XMLSchema-instance" xsi:schemaLocation="http://www.topografix.com/GPX/1/1 http://www.topografix.com/GPX/1/1/gpx.xsd" version="1.1" creator="VisuGPX - https://www.visugpx.com">
  <metadata>
    <name>les Vignes Maxane</name>
  </metadata>
  <trk>
    <name><![CDATA[les Vignes Maxane]]></name>
    <trkseg>
      <trkpt lat="44.27126" lon="3.23716">
        <ele>878.59997558594</ele>
        <time>2019-05-16T09:37:42Z</time>
      </trkpt>
      <trkpt lat="44.2713" lon="3.23708">
        <ele>879</ele>
        <time>2019-05-16T09:37:49Z</time>
      </trkpt>
      <trkpt lat="44.27134" lon="3.23702">
        <ele>879.59997558594</ele>
        <time>2019-05-16T09:42:42Z</time>
      </trkpt>
      <trkpt lat="44.2714" lon="3.23698">
        <ele>879.59997558594</ele>
        <time>2019-05-16T09:42:51Z</time>
      </trkpt>
      <trkpt lat="44.27143" lon="3.23686">
        <ele>879.40002441406</ele>
        <time>2019-05-16T09:42:55Z</time>
      </trkpt>
      <trkpt lat="44.27148" lon="3.23682">
        <ele>878.40002441406</ele>
        <time>2019-05-16T09:42:59Z</time>
      </trkpt>
      <trkpt lat="44.27157" lon="3.2368">
        <ele>877.40002441406</ele>
        <time>2019-05-16T09:43:02Z</time>
      </trkpt>
      <trkpt lat="44.27167" lon="3.2368">
        <ele>876</ele>
        <time>2019-05-16T09:43:04Z</time>
      </trkpt>
      <trkpt lat="44.27178" lon="3.23682">
        <ele>875</ele>
        <time>2019-05-16T09:43:06Z</time>
      </trkpt>
      <trkpt lat="44.27189" lon="3.23681">
        <ele>874</ele>
        <time>2019-05-16T09:43:08Z</time>
      </trkpt>
      <trkpt lat="44.27195" lon="3.23681">
        <ele>873.19995117188</ele>
        <time>2019-05-16T09:43:09Z</time>
      </trkpt>
      <trkpt lat="44.272" lon="3.23681">
        <ele>872.19995117188</ele>
        <time>2019-05-16T09:43:10Z</time>
      </trkpt>
      <trkpt lat="44.27205" lon="3.23681">
        <ele>870.80004882812</ele>
        <time>2019-05-16T09:43:11Z</time>
      </trkpt>
      <trkpt lat="44.27209" lon="3.23681">
        <ele>869.59997558594</ele>
        <time>2019-05-16T09:43:12Z</time>
      </trkpt>
      <trkpt lat="44.27215" lon="3.2368">
        <ele>868.19995117188</ele>
        <time>2019-05-16T09:43:13Z</time>
      </trkpt>
      <trkpt lat="44.2722" lon="3.23681">
        <ele>867</ele>
        <time>2019-05-16T09:43:14Z</time>
      </trkpt>
      <trkpt lat="44.27226" lon="3.23681">
        <ele>865.59997558594</ele>
        <time>2019-05-16T09:43:15Z</time>
      </trkpt>
      <trkpt lat="44.27232" lon="3.2368">
        <ele>863.80004882812</ele>
        <time>2019-05-16T09:43:16Z</time>
      </trkpt>
      <trkpt lat="44.27237" lon="3.23679">
        <ele>862.59997558594</ele>
        <time>2019-05-16T09:43:17Z</time>
      </trkpt>
      <trkpt lat="44.27248" lon="3.23679">
        <ele>860.40002441406</ele>
        <time>2019-05-16T09:43:19Z</time>
      </trkpt>
      <trkpt lat="44.27259" lon="3.23684">
        <ele>858.59997558594</ele>
        <time>2019-05-16T09:43:21Z</time>
      </trkpt>
      <trkpt lat="44.27264" lon="3.23686">
        <ele>857.19995117188</ele>
        <time>2019-05-16T09:43:22Z</time>
      </trkpt>
      <trkpt lat="44.27268" lon="3.23686">
        <ele>855.80004882812</ele>
        <time>2019-05-16T09:43:23Z</time>
      </trkpt>
      <trkpt lat="44.2727" lon="3.23686">
        <ele>854.59997558594</ele>
        <time>2019-05-16T09:43:24Z</time>
      </trkpt>
      <trkpt lat="44.27276" lon="3.23688">
        <ele>852.59997558594</ele>
        <time>2019-05-16T09:43:26Z</time>
      </trkpt>
      <trkpt lat="44.27284" lon="3.2369">
        <ele>851</ele>
        <time>2019-05-16T09:43:28Z</time>
      </trkpt>
      <trkpt lat="44.27292" lon="3.23696">
        <ele>849</ele>
        <time>2019-05-16T09:43:30Z</time>
      </trkpt>
      <trkpt lat="44.27295" lon="3.23698">
        <ele>848.40002441406</ele>
        <time>2019-05-16T09:43:31Z</time>
      </trkpt>
      <trkpt lat="44.27298" lon="3.237">
        <ele>847.80004882812</ele>
        <time>2019-05-16T09:43:32Z</time>
      </trkpt>
      <trkpt lat="44.27311" lon="3.23717">
        <ele>846.80004882812</ele>
        <time>2019-05-16T09:43:37Z</time>
      </trkpt>
      <trkpt lat="44.27318" lon="3.23715">
        <ele>846.40002441406</ele>
        <time>2019-05-16T09:43:42Z</time>
      </trkpt>
      <trkpt lat="44.27339" lon="3.2372">
        <ele>846.19995117188</ele>
        <time>2019-05-16T09:43:47Z</time>
      </trkpt>
      <trkpt lat="44.27353" lon="3.23724">
        <ele>845.80004882812</ele>
        <time>2019-05-16T09:43:50Z</time>
      </trkpt>
      <trkpt lat="44.27362" lon="3.23727">
        <ele>844.59997558594</ele>
        <time>2019-05-16T09:43:52Z</time>
      </trkpt>
      <trkpt lat="44.2737" lon="3.23731">
        <ele>843</ele>
        <time>2019-05-16T09:43:54Z</time>
      </trkpt>
      <trkpt lat="44.27371" lon="3.23725">
        <ele>841.80004882812</ele>
        <time>2019-05-16T09:43:56Z</time>
      </trkpt>
      <trkpt lat="44.27368" lon="3.23721">
        <ele>840</ele>
        <time>2019-05-16T09:43:58Z</time>
      </trkpt>
      <trkpt lat="44.27364" lon="3.23718">
        <ele>839</ele>
        <time>2019-05-16T09:44:00Z</time>
      </trkpt>
      <trkpt lat="44.27361" lon="3.23715">
        <ele>838.19995117188</ele>
        <time>2019-05-16T09:44:01Z</time>
      </trkpt>
      <trkpt lat="44.27357" lon="3.23714">
        <ele>837.40002441406</ele>
        <time>2019-05-16T09:44:02Z</time>
      </trkpt>
      <trkpt lat="44.27349" lon="3.2371">
        <ele>836</ele>
        <time>2019-05-16T09:44:04Z</time>
      </trkpt>
      <trkpt lat="44.27342" lon="3.23704">
        <ele>835</ele>
        <time>2019-05-16T09:44:06Z</time>
      </trkpt>
      <trkpt lat="44.2734" lon="3.23702">
        <ele>834.80004882812</ele>
        <time>2019-05-16T09:44:07Z</time>
      </trkpt>
      <trkpt lat="44.2733" lon="3.23695">
        <ele>833.40002441406</ele>
        <time>2019-05-16T09:44:10Z</time>
      </trkpt>
      <trkpt lat="44.27321" lon="3.23688">
        <ele>831.80004882812</ele>
        <time>2019-05-16T09:44:13Z</time>
      </trkpt>
      <trkpt lat="44.27315" lon="3.23684">
        <ele>830.19995117188</ele>
        <time>2019-05-16T09:44:15Z</time>
      </trkpt>
      <trkpt lat="44.27308" lon="3.23678">
        <ele>829</ele>
        <time>2019-05-16T09:44:17Z</time>
      </trkpt>
      <trkpt lat="44.27304" lon="3.23674">
        <ele>828.40002441406</ele>
        <time>2019-05-16T09:44:18Z</time>
      </trkpt>
      <trkpt lat="44.273" lon="3.2367">
        <ele>827.59997558594</ele>
        <time>2019-05-16T09:44:19Z</time>
      </trkpt>
      <trkpt lat="44.27295" lon="3.23664">
        <ele>826.40002441406</ele>
        <time>2019-05-16T09:44:21Z</time>
      </trkpt>
      <trkpt lat="44.2729" lon="3.23657">
        <ele>825</ele>
        <time>2019-05-16T09:44:23Z</time>
      </trkpt>
      <trkpt lat="44.27284" lon="3.23653">
        <ele>823.80004882812</ele>
        <time>2019-05-16T09:44:25Z</time>
      </trkpt>
      <trkpt lat="44.27281" lon="3.2365">
        <ele>823.40002441406</ele>
        <time>2019-05-16T09:44:26Z</time>
      </trkpt>
      <trkpt lat="44.27277" lon="3.23647">
        <ele>822.59997558594</ele>
        <time>2019-05-16T09:44:27Z</time>
      </trkpt>
      <trkpt lat="44.27271" lon="3.23643">
        <ele>820.80004882812</ele>
        <time>2019-05-16T09:44:29Z</time>
      </trkpt>
      <trkpt lat="44.27266" lon="3.23638">
        <ele>819.40002441406</ele>
        <time>2019-05-16T09:44:31Z</time>
      </trkpt>
      <trkpt lat="44.2726" lon="3.23631">
        <ele>818</ele>
        <time>2019-05-16T09:44:33Z</time>
      </trkpt>
      <trkpt lat="44.27255" lon="3.23625">
        <ele>817</ele>
        <time>2019-05-16T09:44:35Z</time>
      </trkpt>
      <trkpt lat="44.27249" lon="3.23619">
        <ele>815.59997558594</ele>
        <time>2019-05-16T09:44:37Z</time>
      </trkpt>
      <trkpt lat="44.27241" lon="3.2361">
        <ele>814.59997558594</ele>
        <time>2019-05-16T09:44:40Z</time>
      </trkpt>
      <trkpt lat="44.27238" lon="3.23608">
        <ele>814</ele>
        <time>2019-05-16T09:44:41Z</time>
      </trkpt>
      <trkpt lat="44.27232" lon="3.23601">
        <ele>812.40002441406</ele>
        <time>2019-05-16T09:44:44Z</time>
      </trkpt>
      <trkpt lat="44.27223" lon="3.2359">
        <ele>811.59997558594</ele>
        <time>2019-05-16T09:44:47Z</time>
      </trkpt>
      <trkpt lat="44.2722" lon="3.23586">
        <ele>811.40002441406</ele>
        <time>2019-05-16T09:44:48Z</time>
      </trkpt>
      <trkpt lat="44.27212" lon="3.23577">
        <ele>810.40002441406</ele>
        <time>2019-05-16T09:44:51Z</time>
      </trkpt>
      <trkpt lat="44.27209" lon="3.23571">
        <ele>809.40002441406</ele>
        <time>2019-05-16T09:44:53Z</time>
      </trkpt>
      <trkpt lat="44.27211" lon="3.23568">
        <ele>807.80004882812</ele>
        <time>2019-05-16T09:44:56Z</time>
      </trkpt>
      <trkpt lat="44.27214" lon="3.23567">
        <ele>806.40002441406</ele>
        <time>2019-05-16T09:44:59Z</time>
      </trkpt>
      <trkpt lat="44.27223" lon="3.23571">
        <ele>804.59997558594</ele>
        <time>2019-05-16T09:45:03Z</time>
      </trkpt>
      <trkpt lat="44.27228" lon="3.23572">
        <ele>804</ele>
        <time>2019-05-16T09:45:05Z</time>
      </trkpt>
      <trkpt lat="44.27231" lon="3.23574">
        <ele>802.80004882812</ele>
        <time>2019-05-16T09:45:06Z</time>
      </trkpt>
      <trkpt lat="44.27244" lon="3.23582">
        <ele>801.59997558594</ele>
        <time>2019-05-16T09:45:09Z</time>
      </trkpt>
      <trkpt lat="44.27258" lon="3.23587">
        <ele>800.19995117188</ele>
        <time>2019-05-16T09:45:12Z</time>
      </trkpt>
      <trkpt lat="44.2727" lon="3.2359">
        <ele>799</ele>
        <time>2019-05-16T09:45:15Z</time>
      </trkpt>
      <trkpt lat="44.27278" lon="3.23592">
        <ele>798</ele>
        <time>2019-05-16T09:45:17Z</time>
      </trkpt>
      <trkpt lat="44.27285" lon="3.23593">
        <ele>796.80004882812</ele>
        <time>2019-05-16T09:45:19Z</time>
      </trkpt>
      <trkpt lat="44.27296" lon="3.23597">
        <ele>795.59997558594</ele>
        <time>2019-05-16T09:45:22Z</time>
      </trkpt>
      <trkpt lat="44.273" lon="3.23595">
        <ele>795.40002441406</ele>
        <time>2019-05-16T09:45:23Z</time>
      </trkpt>
      <trkpt lat="44.27308" lon="3.23594">
        <ele>794</ele>
        <time>2019-05-16T09:45:25Z</time>
      </trkpt>
      <trkpt lat="44.27317" lon="3.23597">
        <ele>792.19995117188</ele>
        <time>2019-05-16T09:45:27Z</time>
      </trkpt>
      <trkpt lat="44.27322" lon="3.23594">
        <ele>790.59997558594</ele>
        <time>2019-05-16T09:45:29Z</time>
      </trkpt>
      <trkpt lat="44.27321" lon="3.23589">
        <ele>788.19995117188</ele>
        <time>2019-05-16T09:45:32Z</time>
      </trkpt>
      <trkpt lat="44.27318" lon="3.23587">
        <ele>787.40002441406</ele>
        <time>2019-05-16T09:45:33Z</time>
      </trkpt>
      <trkpt lat="44.27311" lon="3.23581">
        <ele>785</ele>
        <time>2019-05-16T09:45:35Z</time>
      </trkpt>
      <trkpt lat="44.27307" lon="3.23578">
        <ele>784.19995117188</ele>
        <time>2019-05-16T09:45:36Z</time>
      </trkpt>
      <trkpt lat="44.27304" lon="3.23576">
        <ele>783.59997558594</ele>
        <time>2019-05-16T09:45:37Z</time>
      </trkpt>
      <trkpt lat="44.27299" lon="3.23571">
        <ele>782.19995117188</ele>
        <time>2019-05-16T09:45:40Z</time>
      </trkpt>
      <trkpt lat="44.27301" lon="3.2357">
        <ele>781</ele>
        <time>2019-05-16T09:45:42Z</time>
      </trkpt>
      <trkpt lat="44.27303" lon="3.23566">
        <ele>779.19995117188</ele>
        <time>2019-05-16T09:45:44Z</time>
      </trkpt>
      <trkpt lat="44.273" lon="3.23561">
        <ele>777.59997558594</ele>
        <time>2019-05-16T09:45:46Z</time>
      </trkpt>
      <trkpt lat="44.27293" lon="3.23556">
        <ele>776.40002441406</ele>
        <time>2019-05-16T09:45:48Z</time>
      </trkpt>
      <trkpt lat="44.27287" lon="3.23548">
        <ele>774.80004882812</ele>
        <time>2019-05-16T09:45:51Z</time>
      </trkpt>
      <trkpt lat="44.27283" lon="3.23541">
        <ele>773.59997558594</ele>
        <time>2019-05-16T09:45:53Z</time>
      </trkpt>
      <trkpt lat="44.27278" lon="3.23536">
        <ele>772.40002441406</ele>
        <time>2019-05-16T09:45:55Z</time>
      </trkpt>
      <trkpt lat="44.2727" lon="3.23525">
        <ele>770.59997558594</ele>
        <time>2019-05-16T09:45:57Z</time>
      </trkpt>
      <trkpt lat="44.27267" lon="3.23519">
        <ele>769.59997558594</ele>
        <time>2019-05-16T09:45:58Z</time>
      </trkpt>
      <trkpt lat="44.27263" lon="3.23514">
        <ele>768.80004882812</ele>
        <time>2019-05-16T09:45:59Z</time>
      </trkpt>
      <trkpt lat="44.27259" lon="3.23509">
        <ele>768</ele>
        <time>2019-05-16T09:46:00Z</time>
      </trkpt>
      <trkpt lat="44.27255" lon="3.23505">
        <ele>767.19995117188</ele>
        <time>2019-05-16T09:46:01Z</time>
      </trkpt>
      <trkpt lat="44.27248" lon="3.23495">
        <ele>765.40002441406</ele>
        <time>2019-05-16T09:46:03Z</time>
      </trkpt>
      <trkpt lat="44.27245" lon="3.23491">
        <ele>763.40002441406</ele>
        <time>2019-05-16T09:46:04Z</time>
      </trkpt>
      <trkpt lat="44.27241" lon="3.23485">
        <ele>762.19995117188</ele>
        <time>2019-05-16T09:46:05Z</time>
      </trkpt>
      <trkpt lat="44.27239" lon="3.23481">
        <ele>761</ele>
        <time>2019-05-16T09:46:06Z</time>
      </trkpt>
      <trkpt lat="44.27236" lon="3.23476">
        <ele>760</ele>
        <time>2019-05-16T09:46:07Z</time>
      </trkpt>
      <trkpt lat="44.27233" lon="3.23471">
        <ele>758.59997558594</ele>
        <time>2019-05-16T09:46:08Z</time>
      </trkpt>
      <trkpt lat="44.27229" lon="3.23467">
        <ele>757.40002441406</ele>
        <time>2019-05-16T09:46:09Z</time>
      </trkpt>
      <trkpt lat="44.27225" lon="3.23463">
        <ele>756.40002441406</ele>
        <time>2019-05-16T09:46:10Z</time>
      </trkpt>
      <trkpt lat="44.27221" lon="3.23458">
        <ele>755.19995117188</ele>
        <time>2019-05-16T09:46:11Z</time>
      </trkpt>
      <trkpt lat="44.27214" lon="3.23449">
        <ele>753.59997558594</ele>
        <time>2019-05-16T09:46:13Z</time>
      </trkpt>
      <trkpt lat="44.27209" lon="3.23442">
        <ele>752.19995117188</ele>
        <time>2019-05-16T09:46:15Z</time>
      </trkpt>
      <trkpt lat="44.27205" lon="3.23434">
        <ele>751</ele>
        <time>2019-05-16T09:46:17Z</time>
      </trkpt>
      <trkpt lat="44.27201" lon="3.23419">
        <ele>750</ele>
        <time>2019-05-16T09:46:20Z</time>
      </trkpt>
      <trkpt lat="44.272" lon="3.23411">
        <ele>748.80004882812</ele>
        <time>2019-05-16T09:46:23Z</time>
      </trkpt>
      <trkpt lat="44.27203" lon="3.23414">
        <ele>746.59997558594</ele>
        <time>2019-05-16T09:46:26Z</time>
      </trkpt>
      <trkpt lat="44.27208" lon="3.23421">
        <ele>744</ele>
        <time>2019-05-16T09:46:29Z</time>
      </trkpt>
      <trkpt lat="44.2721" lon="3.23423">
        <ele>743.40002441406</ele>
        <time>2019-05-16T09:46:30Z</time>
      </trkpt>
      <trkpt lat="44.27213" lon="3.23426">
        <ele>742.80004882812</ele>
        <time>2019-05-16T09:46:31Z</time>
      </trkpt>
      <trkpt lat="44.27218" lon="3.23431">
        <ele>741.40002441406</ele>
        <time>2019-05-16T09:46:33Z</time>
      </trkpt>
      <trkpt lat="44.27224" lon="3.23438">
        <ele>740</ele>
        <time>2019-05-16T09:46:35Z</time>
      </trkpt>
      <trkpt lat="44.27235" lon="3.23446">
        <ele>739.19995117188</ele>
        <time>2019-05-16T09:46:38Z</time>
      </trkpt>
      <trkpt lat="44.27238" lon="3.23448">
        <ele>739</ele>
        <time>2019-05-16T09:46:39Z</time>
      </trkpt>
      <trkpt lat="44.27251" lon="3.23456">
        <ele>737.80004882812</ele>
        <time>2019-05-16T09:46:42Z</time>
      </trkpt>
      <trkpt lat="44.27261" lon="3.23461">
        <ele>737</ele>
        <time>2019-05-16T09:46:44Z</time>
      </trkpt>
      <trkpt lat="44.27265" lon="3.23463">
        <ele>736.59997558594</ele>
        <time>2019-05-16T09:46:45Z</time>
      </trkpt>
      <trkpt lat="44.27274" lon="3.23468">
        <ele>735</ele>
        <time>2019-05-16T09:46:47Z</time>
      </trkpt>
      <trkpt lat="44.27278" lon="3.2347">
        <ele>734.40002441406</ele>
        <time>2019-05-16T09:46:48Z</time>
      </trkpt>
      <trkpt lat="44.27282" lon="3.23471">
        <ele>733.80004882812</ele>
        <time>2019-05-16T09:46:49Z</time>
      </trkpt>
      <trkpt lat="44.27291" lon="3.23473">
        <ele>732.40002441406</ele>
        <time>2019-05-16T09:46:51Z</time>
      </trkpt>
      <trkpt lat="44.27297" lon="3.23475">
        <ele>731.19995117188</ele>
        <time>2019-05-16T09:46:53Z</time>
      </trkpt>
      <trkpt lat="44.27303" lon="3.23478">
        <ele>730</ele>
        <time>2019-05-16T09:46:55Z</time>
      </trkpt>
      <trkpt lat="44.27306" lon="3.23475">
        <ele>728.40002441406</ele>
        <time>2019-05-16T09:46:57Z</time>
      </trkpt>
      <trkpt lat="44.27306" lon="3.2347">
        <ele>723.59997558594</ele>
        <time>2019-05-16T09:47:01Z</time>
      </trkpt>
      <trkpt lat="44.27304" lon="3.23466">
        <ele>719.19995117188</ele>
        <time>2019-05-16T09:47:12Z</time>
      </trkpt>
      <trkpt lat="44.27301" lon="3.23462">
        <ele>719.19995117188</ele>
        <time>2019-05-16T09:47:13Z</time>
      </trkpt>
      <trkpt lat="44.2729" lon="3.23448">
        <ele>718.59997558594</ele>
        <time>2019-05-16T09:47:18Z</time>
      </trkpt>
      <trkpt lat="44.2729" lon="3.23444">
        <ele>717.19995117188</ele>
        <time>2019-05-16T09:47:21Z</time>
      </trkpt>
      <trkpt lat="44.27295" lon="3.23441">
        <ele>715.80004882812</ele>
        <time>2019-05-16T09:47:23Z</time>
      </trkpt>
      <trkpt lat="44.27301" lon="3.23443">
        <ele>714.19995117188</ele>
        <time>2019-05-16T09:47:25Z</time>
      </trkpt>
      <trkpt lat="44.27304" lon="3.23445">
        <ele>713.59997558594</ele>
        <time>2019-05-16T09:47:26Z</time>
      </trkpt>
      <trkpt lat="44.27307" lon="3.23446">
        <ele>713</ele>
        <time>2019-05-16T09:47:27Z</time>
      </trkpt>
      <trkpt lat="44.27313" lon="3.23449">
        <ele>711.59997558594</ele>
        <time>2019-05-16T09:47:29Z</time>
      </trkpt>
      <trkpt lat="44.27318" lon="3.2345">
        <ele>710.40002441406</ele>
        <time>2019-05-16T09:47:31Z</time>
      </trkpt>
      <trkpt lat="44.27321" lon="3.2345">
        <ele>710</ele>
        <time>2019-05-16T09:47:32Z</time>
      </trkpt>
      <trkpt lat="44.27324" lon="3.2345">
        <ele>709.40002441406</ele>
        <time>2019-05-16T09:47:33Z</time>
      </trkpt>
      <trkpt lat="44.27332" lon="3.23452">
        <ele>708.40002441406</ele>
        <time>2019-05-16T09:47:35Z</time>
      </trkpt>
      <trkpt lat="44.27341" lon="3.23455">
        <ele>707</ele>
        <time>2019-05-16T09:47:37Z</time>
      </trkpt>
      <trkpt lat="44.27349" lon="3.23456">
        <ele>705.59997558594</ele>
        <time>2019-05-16T09:47:39Z</time>
      </trkpt>
      <trkpt lat="44.27356" lon="3.23455">
        <ele>704</ele>
        <time>2019-05-16T09:47:41Z</time>
      </trkpt>
      <trkpt lat="44.2736" lon="3.23456">
        <ele>703.40002441406</ele>
        <time>2019-05-16T09:47:42Z</time>
      </trkpt>
      <trkpt lat="44.27363" lon="3.23457">
        <ele>702.80004882812</ele>
        <time>2019-05-16T09:47:43Z</time>
      </trkpt>
      <trkpt lat="44.27372" lon="3.23457">
        <ele>701.19995117188</ele>
        <time>2019-05-16T09:47:45Z</time>
      </trkpt>
      <trkpt lat="44.27376" lon="3.23456">
        <ele>700</ele>
        <time>2019-05-16T09:47:46Z</time>
      </trkpt>
      <trkpt lat="44.27381" lon="3.23456">
        <ele>698.80004882812</ele>
        <time>2019-05-16T09:47:47Z</time>
      </trkpt>
      <trkpt lat="44.2739" lon="3.23455">
        <ele>696.80004882812</ele>
        <time>2019-05-16T09:47:49Z</time>
      </trkpt>
      <trkpt lat="44.27396" lon="3.23455">
        <ele>695.40002441406</ele>
        <time>2019-05-16T09:47:51Z</time>
      </trkpt>
      <trkpt lat="44.27399" lon="3.23455">
        <ele>693.80004882812</ele>
        <time>2019-05-16T09:47:53Z</time>
      </trkpt>
      <trkpt lat="44.27401" lon="3.23458">
        <ele>687.80004882812</ele>
        <time>2019-05-16T09:47:59Z</time>
      </trkpt>
      <trkpt lat="44.274" lon="3.23453">
        <ele>687.19995117188</ele>
        <time>2019-05-16T09:48:11Z</time>
      </trkpt>
      <trkpt lat="44.27389" lon="3.23442">
        <ele>686.40002441406</ele>
        <time>2019-05-16T09:48:15Z</time>
      </trkpt>
      <trkpt lat="44.27373" lon="3.23427">
        <ele>684.80004882812</ele>
        <time>2019-05-16T09:48:21Z</time>
      </trkpt>
      <trkpt lat="44.27369" lon="3.23423">
        <ele>683.59997558594</ele>
        <time>2019-05-16T09:48:23Z</time>
      </trkpt>
      <trkpt lat="44.27365" lon="3.23418">
        <ele>682.40002441406</ele>
        <time>2019-05-16T09:48:25Z</time>
      </trkpt>
      <trkpt lat="44.2736" lon="3.23413">
        <ele>680.40002441406</ele>
        <time>2019-05-16T09:48:27Z</time>
      </trkpt>
      <trkpt lat="44.27355" lon="3.23408">
        <ele>679.80004882812</ele>
        <time>2019-05-16T09:48:29Z</time>
      </trkpt>
      <trkpt lat="44.27352" lon="3.23405">
        <ele>679.40002441406</ele>
        <time>2019-05-16T09:48:30Z</time>
      </trkpt>
      <trkpt lat="44.2734" lon="3.23394">
        <ele>678.19995117188</ele>
        <time>2019-05-16T09:48:33Z</time>
      </trkpt>
      <trkpt lat="44.27336" lon="3.2339">
        <ele>677.80004882812</ele>
        <time>2019-05-16T09:48:34Z</time>
      </trkpt>
      <trkpt lat="44.27328" lon="3.23379">
        <ele>677.19995117188</ele>
        <time>2019-05-16T09:48:36Z</time>
      </trkpt>
      <trkpt lat="44.2732" lon="3.23368">
        <ele>675.80004882812</ele>
        <time>2019-05-16T09:48:38Z</time>
      </trkpt>
      <trkpt lat="44.27313" lon="3.23361">
        <ele>674.80004882812</ele>
        <time>2019-05-16T09:48:40Z</time>
      </trkpt>
      <trkpt lat="44.27311" lon="3.23358">
        <ele>674</ele>
        <time>2019-05-16T09:48:41Z</time>
      </trkpt>
      <trkpt lat="44.27308" lon="3.23353">
        <ele>672.40002441406</ele>
        <time>2019-05-16T09:48:43Z</time>
      </trkpt>
      <trkpt lat="44.27309" lon="3.2335">
        <ele>669.40002441406</ele>
        <time>2019-05-16T09:48:46Z</time>
      </trkpt>
      <trkpt lat="44.27312" lon="3.23351">
        <ele>667.80004882812</ele>
        <time>2019-05-16T09:48:48Z</time>
      </trkpt>
      <trkpt lat="44.27315" lon="3.23351">
        <ele>667.19995117188</ele>
        <time>2019-05-16T09:48:49Z</time>
      </trkpt>
      <trkpt lat="44.27322" lon="3.23354">
        <ele>666.40002441406</ele>
        <time>2019-05-16T09:48:51Z</time>
      </trkpt>
      <trkpt lat="44.27331" lon="3.23358">
        <ele>665.19995117188</ele>
        <time>2019-05-16T09:48:53Z</time>
      </trkpt>
      <trkpt lat="44.27335" lon="3.2336">
        <ele>664.59997558594</ele>
        <time>2019-05-16T09:48:54Z</time>
      </trkpt>
      <trkpt lat="44.27339" lon="3.23362">
        <ele>664</ele>
        <time>2019-05-16T09:48:55Z</time>
      </trkpt>
      <trkpt lat="44.27342" lon="3.23363">
        <ele>662.59997558594</ele>
        <time>2019-05-16T09:48:56Z</time>
      </trkpt>
      <trkpt lat="44.27347" lon="3.23364">
        <ele>661.19995117188</ele>
        <time>2019-05-16T09:48:58Z</time>
      </trkpt>
      <trkpt lat="44.27351" lon="3.23363">
        <ele>659.80004882812</ele>
        <time>2019-05-16T09:49:00Z</time>
      </trkpt>
      <trkpt lat="44.27353" lon="3.2336">
        <ele>658.59997558594</ele>
        <time>2019-05-16T09:49:03Z</time>
      </trkpt>
      <trkpt lat="44.27351" lon="3.23356">
        <ele>656</ele>
        <time>2019-05-16T09:49:08Z</time>
      </trkpt>
      <trkpt lat="44.27345" lon="3.23351">
        <ele>654</ele>
        <time>2019-05-16T09:49:13Z</time>
      </trkpt>
      <trkpt lat="44.27336" lon="3.23333">
        <ele>652.80004882812</ele>
        <time>2019-05-16T09:49:18Z</time>
      </trkpt>
      <trkpt lat="44.27326" lon="3.23322">
        <ele>651.80004882812</ele>
        <time>2019-05-16T09:49:21Z</time>
      </trkpt>
      <trkpt lat="44.2732" lon="3.23315">
        <ele>650.80004882812</ele>
        <time>2019-05-16T09:49:23Z</time>
      </trkpt>
      <trkpt lat="44.27318" lon="3.23311">
        <ele>650.19995117188</ele>
        <time>2019-05-16T09:49:24Z</time>
      </trkpt>
      <trkpt lat="44.27315" lon="3.23309">
        <ele>648.80004882812</ele>
        <time>2019-05-16T09:49:25Z</time>
      </trkpt>
      <trkpt lat="44.2731" lon="3.23303">
        <ele>647.59997558594</ele>
        <time>2019-05-16T09:49:27Z</time>
      </trkpt>
      <trkpt lat="44.27301" lon="3.23293">
        <ele>646.40002441406</ele>
        <time>2019-05-16T09:49:29Z</time>
      </trkpt>
      <trkpt lat="44.27296" lon="3.23287">
        <ele>644.80004882812</ele>
        <time>2019-05-16T09:49:31Z</time>
      </trkpt>
      <trkpt lat="44.27294" lon="3.23283">
        <ele>643.59997558594</ele>
        <time>2019-05-16T09:49:33Z</time>
      </trkpt>
      <trkpt lat="44.27287" lon="3.23274">
        <ele>642.40002441406</ele>
        <time>2019-05-16T09:49:35Z</time>
      </trkpt>
      <trkpt lat="44.27281" lon="3.23265">
        <ele>641.40002441406</ele>
        <time>2019-05-16T09:49:37Z</time>
      </trkpt>
      <trkpt lat="44.27276" lon="3.23257">
        <ele>640</ele>
        <time>2019-05-16T09:49:39Z</time>
      </trkpt>
      <trkpt lat="44.27273" lon="3.23251">
        <ele>639</ele>
        <time>2019-05-16T09:49:41Z</time>
      </trkpt>
      <trkpt lat="44.2728" lon="3.2325">
        <ele>636</ele>
        <time>2019-05-16T09:49:45Z</time>
      </trkpt>
      <trkpt lat="44.27286" lon="3.23251">
        <ele>634.59997558594</ele>
        <time>2019-05-16T09:49:47Z</time>
      </trkpt>
      <trkpt lat="44.2729" lon="3.23252">
        <ele>633</ele>
        <time>2019-05-16T09:49:49Z</time>
      </trkpt>
      <trkpt lat="44.27297" lon="3.23254">
        <ele>631.59997558594</ele>
        <time>2019-05-16T09:49:51Z</time>
      </trkpt>
      <trkpt lat="44.27304" lon="3.23256">
        <ele>629.40002441406</ele>
        <time>2019-05-16T09:49:53Z</time>
      </trkpt>
      <trkpt lat="44.27311" lon="3.23258">
        <ele>627.80004882812</ele>
        <time>2019-05-16T09:49:55Z</time>
      </trkpt>
      <trkpt lat="44.27316" lon="3.23258">
        <ele>626</ele>
        <time>2019-05-16T09:49:57Z</time>
      </trkpt>
      <trkpt lat="44.2732" lon="3.23255">
        <ele>624</ele>
        <time>2019-05-16T09:49:59Z</time>
      </trkpt>
      <trkpt lat="44.27318" lon="3.23249">
        <ele>621.40002441406</ele>
        <time>2019-05-16T09:50:02Z</time>
      </trkpt>
      <trkpt lat="44.27314" lon="3.23242">
        <ele>619.40002441406</ele>
        <time>2019-05-16T09:50:04Z</time>
      </trkpt>
      <trkpt lat="44.2731" lon="3.23236">
        <ele>618</ele>
        <time>2019-05-16T09:50:06Z</time>
      </trkpt>
      <trkpt lat="44.27307" lon="3.23229">
        <ele>616.80004882812</ele>
        <time>2019-05-16T09:50:08Z</time>
      </trkpt>
      <trkpt lat="44.27301" lon="3.23219">
        <ele>615.59997558594</ele>
        <time>2019-05-16T09:50:10Z</time>
      </trkpt>
      <trkpt lat="44.27296" lon="3.23209">
        <ele>614.19995117188</ele>
        <time>2019-05-16T09:50:12Z</time>
      </trkpt>
      <trkpt lat="44.27293" lon="3.23205">
        <ele>613.19995117188</ele>
        <time>2019-05-16T09:50:13Z</time>
      </trkpt>
      <trkpt lat="44.27291" lon="3.23201">
        <ele>612.40002441406</ele>
        <time>2019-05-16T09:50:14Z</time>
      </trkpt>
      <trkpt lat="44.27289" lon="3.23196">
        <ele>611</ele>
        <time>2019-05-16T09:50:16Z</time>
      </trkpt>
      <trkpt lat="44.27293" lon="3.23196">
        <ele>607.40002441406</ele>
        <time>2019-05-16T09:50:20Z</time>
      </trkpt>
      <trkpt lat="44.27294" lon="3.23194">
        <ele>603.40002441406</ele>
        <time>2019-05-16T09:50:24Z</time>
      </trkpt>
      <trkpt lat="44.27292" lon="3.23188">
        <ele>602.40002441406</ele>
        <time>2019-05-16T09:50:26Z</time>
      </trkpt>
      <trkpt lat="44.27295" lon="3.2319">
        <ele>600</ele>
        <time>2019-05-16T09:50:30Z</time>
      </trkpt>
      <trkpt lat="44.27297" lon="3.2319">
        <ele>597.19995117188</ele>
        <time>2019-05-16T09:50:36Z</time>
      </trkpt>
      <trkpt lat="44.27301" lon="3.23189">
        <ele>596.19995117188</ele>
        <time>2019-05-16T09:50:42Z</time>
      </trkpt>
      <trkpt lat="44.27307" lon="3.23192">
        <ele>596.19995117188</ele>
        <time>2019-05-16T09:50:45Z</time>
      </trkpt>
      <trkpt lat="44.2731" lon="3.23194">
        <ele>596.19995117188</ele>
        <time>2019-05-16T09:50:46Z</time>
      </trkpt>
      <trkpt lat="44.27322" lon="3.23201">
        <ele>596</ele>
        <time>2019-05-16T09:50:49Z</time>
      </trkpt>
      <trkpt lat="44.2733" lon="3.23205">
        <ele>595.80004882812</ele>
        <time>2019-05-16T09:50:51Z</time>
      </trkpt>
      <trkpt lat="44.27347" lon="3.23212">
        <ele>594.59997558594</ele>
        <time>2019-05-16T09:50:56Z</time>
      </trkpt>
      <trkpt lat="44.2735" lon="3.23213">
        <ele>594.19995117188</ele>
        <time>2019-05-16T09:50:57Z</time>
      </trkpt>
      <trkpt lat="44.27363" lon="3.23219">
        <ele>593</ele>
        <time>2019-05-16T09:51:00Z</time>
      </trkpt>
      <trkpt lat="44.27372" lon="3.23223">
        <ele>592.40002441406</ele>
        <time>2019-05-16T09:51:02Z</time>
      </trkpt>
      <trkpt lat="44.27376" lon="3.23224">
        <ele>592</ele>
        <time>2019-05-16T09:51:03Z</time>
      </trkpt>
      <trkpt lat="44.27388" lon="3.2323">
        <ele>590.80004882812</ele>
        <time>2019-05-16T09:51:07Z</time>
      </trkpt>
      <trkpt lat="44.27391" lon="3.23227">
        <ele>589.59997558594</ele>
        <time>2019-05-16T09:51:10Z</time>
      </trkpt>
      <trkpt lat="44.27389" lon="3.23219">
        <ele>588.19995117188</ele>
        <time>2019-05-16T09:51:13Z</time>
      </trkpt>
      <trkpt lat="44.27385" lon="3.23211">
        <ele>587.59997558594</ele>
        <time>2019-05-16T09:51:15Z</time>
      </trkpt>
      <trkpt lat="44.27381" lon="3.23205">
        <ele>587.19995117188</ele>
        <time>2019-05-16T09:51:17Z</time>
      </trkpt>
      <trkpt lat="44.27379" lon="3.23199">
        <ele>586.19995117188</ele>
        <time>2019-05-16T09:51:20Z</time>
      </trkpt>
      <trkpt lat="44.27383" lon="3.23195">
        <ele>583.80004882812</ele>
        <time>2019-05-16T09:51:23Z</time>
      </trkpt>
      <trkpt lat="44.27388" lon="3.23193">
        <ele>582</ele>
        <time>2019-05-16T09:51:25Z</time>
      </trkpt>
      <trkpt lat="44.27394" lon="3.23194">
        <ele>580.40002441406</ele>
        <time>2019-05-16T09:51:27Z</time>
      </trkpt>
      <trkpt lat="44.27402" lon="3.23195">
        <ele>579.19995117188</ele>
        <time>2019-05-16T09:51:29Z</time>
      </trkpt>
      <trkpt lat="44.27409" lon="3.23197">
        <ele>577.40002441406</ele>
        <time>2019-05-16T09:51:31Z</time>
      </trkpt>
      <trkpt lat="44.27417" lon="3.23199">
        <ele>575.59997558594</ele>
        <time>2019-05-16T09:51:33Z</time>
      </trkpt>
      <trkpt lat="44.27424" lon="3.23201">
        <ele>573.80004882812</ele>
        <time>2019-05-16T09:51:35Z</time>
      </trkpt>
      <trkpt lat="44.27429" lon="3.23203">
        <ele>572</ele>
        <time>2019-05-16T09:51:37Z</time>
      </trkpt>
      <trkpt lat="44.27431" lon="3.232">
        <ele>570.40002441406</ele>
        <time>2019-05-16T09:51:39Z</time>
      </trkpt>
      <trkpt lat="44.2743" lon="3.23195">
        <ele>569</ele>
        <time>2019-05-16T09:51:41Z</time>
      </trkpt>
      <trkpt lat="44.27427" lon="3.23186">
        <ele>567.40002441406</ele>
        <time>2019-05-16T09:51:43Z</time>
      </trkpt>
      <trkpt lat="44.27422" lon="3.23178">
        <ele>566</ele>
        <time>2019-05-16T09:51:45Z</time>
      </trkpt>
      <trkpt lat="44.27419" lon="3.23174">
        <ele>565.40002441406</ele>
        <time>2019-05-16T09:51:46Z</time>
      </trkpt>
      <trkpt lat="44.27416" lon="3.23171">
        <ele>564.80004882812</ele>
        <time>2019-05-16T09:51:47Z</time>
      </trkpt>
      <trkpt lat="44.2741" lon="3.23163">
        <ele>563.40002441406</ele>
        <time>2019-05-16T09:51:49Z</time>
      </trkpt>
      <trkpt lat="44.27406" lon="3.23154">
        <ele>562.19995117188</ele>
        <time>2019-05-16T09:51:51Z</time>
      </trkpt>
      <trkpt lat="44.27397" lon="3.23144">
        <ele>561</ele>
        <time>2019-05-16T09:51:54Z</time>
      </trkpt>
      <trkpt lat="44.27392" lon="3.2314">
        <ele>559.80004882812</ele>
        <time>2019-05-16T09:51:56Z</time>
      </trkpt>
      <trkpt lat="44.27393" lon="3.23137">
        <ele>557.80004882812</ele>
        <time>2019-05-16T09:51:59Z</time>
      </trkpt>
      <trkpt lat="44.27401" lon="3.23138">
        <ele>556</ele>
        <time>2019-05-16T09:52:02Z</time>
      </trkpt>
      <trkpt lat="44.27407" lon="3.23138">
        <ele>554.59997558594</ele>
        <time>2019-05-16T09:52:05Z</time>
      </trkpt>
      <trkpt lat="44.27409" lon="3.23134">
        <ele>553.19995117188</ele>
        <time>2019-05-16T09:52:08Z</time>
      </trkpt>
      <trkpt lat="44.27405" lon="3.2313">
        <ele>552.19995117188</ele>
        <time>2019-05-16T09:52:10Z</time>
      </trkpt>
      <trkpt lat="44.27401" lon="3.23126">
        <ele>550.59997558594</ele>
        <time>2019-05-16T09:52:12Z</time>
      </trkpt>
      <trkpt lat="44.27396" lon="3.23121">
        <ele>549.19995117188</ele>
        <time>2019-05-16T09:52:14Z</time>
      </trkpt>
      <trkpt lat="44.27394" lon="3.23115">
        <ele>548.19995117188</ele>
        <time>2019-05-16T09:52:16Z</time>
      </trkpt>
      <trkpt lat="44.27397" lon="3.23104">
        <ele>547</ele>
        <time>2019-05-16T09:52:20Z</time>
      </trkpt>
      <trkpt lat="44.27399" lon="3.23096">
        <ele>545.19995117188</ele>
        <time>2019-05-16T09:52:23Z</time>
      </trkpt>
      <trkpt lat="44.27403" lon="3.23093">
        <ele>543.59997558594</ele>
        <time>2019-05-16T09:52:25Z</time>
      </trkpt>
      <trkpt lat="44.27406" lon="3.23089">
        <ele>541.59997558594</ele>
        <time>2019-05-16T09:52:27Z</time>
      </trkpt>
      <trkpt lat="44.27411" lon="3.23087">
        <ele>539.80004882812</ele>
        <time>2019-05-16T09:52:29Z</time>
      </trkpt>
      <trkpt lat="44.27415" lon="3.23088">
        <ele>538.40002441406</ele>
        <time>2019-05-16T09:52:31Z</time>
      </trkpt>
      <trkpt lat="44.27419" lon="3.23089">
        <ele>534.80004882812</ele>
        <time>2019-05-16T09:52:35Z</time>
      </trkpt>
      <trkpt lat="44.27424" lon="3.23087">
        <ele>532.40002441406</ele>
        <time>2019-05-16T09:52:39Z</time>
      </trkpt>
      <trkpt lat="44.27429" lon="3.23084">
        <ele>531.59997558594</ele>
        <time>2019-05-16T09:52:43Z</time>
      </trkpt>
      <trkpt lat="44.27429" lon="3.23081">
        <ele>527.19995117188</ele>
        <time>2019-05-16T09:52:50Z</time>
      </trkpt>
      <trkpt lat="44.27424" lon="3.23075">
        <ele>526.40002441406</ele>
        <time>2019-05-16T09:52:54Z</time>
      </trkpt>
      <trkpt lat="44.27417" lon="3.23064">
        <ele>526.19995117188</ele>
        <time>2019-05-16T09:52:57Z</time>
      </trkpt>
      <trkpt lat="44.27415" lon="3.2306">
        <ele>526.19995117188</ele>
        <time>2019-05-16T09:52:58Z</time>
      </trkpt>
      <trkpt lat="44.27408" lon="3.23045">
        <ele>525.19995117188</ele>
        <time>2019-05-16T09:53:03Z</time>
      </trkpt>
      <trkpt lat="44.27411" lon="3.23042">
        <ele>522.79998779297</ele>
        <time>2019-05-16T09:53:06Z</time>
      </trkpt>
      <trkpt lat="44.27415" lon="3.2304">
        <ele>521.59997558594</ele>
        <time>2019-05-16T09:53:07Z</time>
      </trkpt>
      <trkpt lat="44.27418" lon="3.23041">
        <ele>519.79998779297</ele>
        <time>2019-05-16T09:53:09Z</time>
      </trkpt>
      <trkpt lat="44.27422" lon="3.23036">
        <ele>514.59997558594</ele>
        <time>2019-05-16T09:53:25Z</time>
      </trkpt>
      <trkpt lat="44.2743" lon="3.23033">
        <ele>514.59997558594</ele>
        <time>2019-05-16T09:53:28Z</time>
      </trkpt>
      <trkpt lat="44.27438" lon="3.23028">
        <ele>514.40002441406</ele>
        <time>2019-05-16T09:53:30Z</time>
      </trkpt>
      <trkpt lat="44.27452" lon="3.23018">
        <ele>513.59997558594</ele>
        <time>2019-05-16T09:53:35Z</time>
      </trkpt>
      <trkpt lat="44.27455" lon="3.23016">
        <ele>512.79998779297</ele>
        <time>2019-05-16T09:53:36Z</time>
      </trkpt>
      <trkpt lat="44.27463" lon="3.2301">
        <ele>511.20001220703</ele>
        <time>2019-05-16T09:53:38Z</time>
      </trkpt>
      <trkpt lat="44.27466" lon="3.23008">
        <ele>510.20001220703</ele>
        <time>2019-05-16T09:53:39Z</time>
      </trkpt>
      <trkpt lat="44.27469" lon="3.23005">
        <ele>509.20001220703</ele>
        <time>2019-05-16T09:53:40Z</time>
      </trkpt>
      <trkpt lat="44.27476" lon="3.23002">
        <ele>508</ele>
        <time>2019-05-16T09:53:41Z</time>
      </trkpt>
      <trkpt lat="44.27481" lon="3.23002">
        <ele>505.40002441406</ele>
        <time>2019-05-16T09:53:42Z</time>
      </trkpt>
      <trkpt lat="44.27485" lon="3.23002">
        <ele>504.40002441406</ele>
        <time>2019-05-16T09:53:43Z</time>
      </trkpt>
      <trkpt lat="44.2749" lon="3.23006">
        <ele>503</ele>
        <time>2019-05-16T09:53:44Z</time>
      </trkpt>
      <trkpt lat="44.27496" lon="3.23009">
        <ele>500.40002441406</ele>
        <time>2019-05-16T09:53:46Z</time>
      </trkpt>
      <trkpt lat="44.27506" lon="3.23013">
        <ele>499</ele>
        <time>2019-05-16T09:53:47Z</time>
      </trkpt>
      <trkpt lat="44.2751" lon="3.23011">
        <ele>496.79998779297</ele>
        <time>2019-05-16T09:53:49Z</time>
      </trkpt>
      <trkpt lat="44.2752" lon="3.23003">
        <ele>495</ele>
        <time>2019-05-16T09:53:51Z</time>
      </trkpt>
      <trkpt lat="44.27525" lon="3.22999">
        <ele>493.59997558594</ele>
        <time>2019-05-16T09:53:52Z</time>
      </trkpt>
      <trkpt lat="44.2753" lon="3.22996">
        <ele>492.59997558594</ele>
        <time>2019-05-16T09:53:53Z</time>
      </trkpt>
      <trkpt lat="44.27535" lon="3.22992">
        <ele>491.40002441406</ele>
        <time>2019-05-16T09:53:54Z</time>
      </trkpt>
      <trkpt lat="44.2754" lon="3.22988">
        <ele>490.20001220703</ele>
        <time>2019-05-16T09:53:55Z</time>
      </trkpt>
      <trkpt lat="44.27544" lon="3.22985">
        <ele>489.20001220703</ele>
        <time>2019-05-16T09:53:56Z</time>
      </trkpt>
      <trkpt lat="44.27549" lon="3.22982">
        <ele>488.40002441406</ele>
        <time>2019-05-16T09:53:57Z</time>
      </trkpt>
      <trkpt lat="44.27559" lon="3.2298">
        <ele>486.79998779297</ele>
        <time>2019-05-16T09:53:59Z</time>
      </trkpt>
      <trkpt lat="44.27568" lon="3.22977">
        <ele>485.59997558594</ele>
        <time>2019-05-16T09:54:01Z</time>
      </trkpt>
      <trkpt lat="44.27573" lon="3.22974">
        <ele>484</ele>
        <time>2019-05-16T09:54:03Z</time>
      </trkpt>
      <trkpt lat="44.2758" lon="3.22972">
        <ele>482.79998779297</ele>
        <time>2019-05-16T09:54:06Z</time>
      </trkpt>
      <trkpt lat="44.27583" lon="3.22973">
        <ele>480</ele>
        <time>2019-05-16T09:54:11Z</time>
      </trkpt>
      <trkpt lat="44.27586" lon="3.22974">
        <ele>477.59997558594</ele>
        <time>2019-05-16T09:54:20Z</time>
      </trkpt>
      <trkpt lat="44.27592" lon="3.22972">
        <ele>477.40002441406</ele>
        <time>2019-05-16T09:54:27Z</time>
      </trkpt>
      <trkpt lat="44.27605" lon="3.22973">
        <ele>476.59997558594</ele>
        <time>2019-05-16T09:54:37Z</time>
      </trkpt>
      <trkpt lat="44.27618" lon="3.22976">
        <ele>475.40002441406</ele>
        <time>2019-05-16T09:54:43Z</time>
      </trkpt>
      <trkpt lat="44.27623" lon="3.22977">
        <ele>474.79998779297</ele>
        <time>2019-05-16T09:54:45Z</time>
      </trkpt>
      <trkpt lat="44.27628" lon="3.22978">
        <ele>474.20001220703</ele>
        <time>2019-05-16T09:54:47Z</time>
      </trkpt>
      <trkpt lat="44.27636" lon="3.22976">
        <ele>473.20001220703</ele>
        <time>2019-05-16T09:54:51Z</time>
      </trkpt>
      <trkpt lat="44.27638" lon="3.22973">
        <ele>472</ele>
        <time>2019-05-16T09:54:54Z</time>
      </trkpt>
      <trkpt lat="44.2764" lon="3.22964">
        <ele>470</ele>
        <time>2019-05-16T09:55:01Z</time>
      </trkpt>
      <trkpt lat="44.27654" lon="3.22963">
        <ele>468.79998779297</ele>
        <time>2019-05-16T09:55:08Z</time>
      </trkpt>
      <trkpt lat="44.27657" lon="3.22963">
        <ele>468</ele>
        <time>2019-05-16T09:55:09Z</time>
      </trkpt>
      <trkpt lat="44.27666" lon="3.22961">
        <ele>466.79998779297</ele>
        <time>2019-05-16T09:55:12Z</time>
      </trkpt>
      <trkpt lat="44.27679" lon="3.22957">
        <ele>465.59997558594</ele>
        <time>2019-05-16T09:55:16Z</time>
      </trkpt>
      <trkpt lat="44.277" lon="3.22948">
        <ele>464.59997558594</ele>
        <time>2019-05-16T09:55:23Z</time>
      </trkpt>
      <trkpt lat="44.27721" lon="3.22935">
        <ele>463.20001220703</ele>
        <time>2019-05-16T09:55:30Z</time>
      </trkpt>
      <trkpt lat="44.27724" lon="3.22935">
        <ele>462.79998779297</ele>
        <time>2019-05-16T09:55:31Z</time>
      </trkpt>
      <trkpt lat="44.27727" lon="3.22936">
        <ele>462.20001220703</ele>
        <time>2019-05-16T09:55:32Z</time>
      </trkpt>
      <trkpt lat="44.27734" lon="3.22938">
        <ele>461.20001220703</ele>
        <time>2019-05-16T09:55:34Z</time>
      </trkpt>
      <trkpt lat="44.27741" lon="3.22942">
        <ele>460</ele>
        <time>2019-05-16T09:55:36Z</time>
      </trkpt>
      <trkpt lat="44.27745" lon="3.22947">
        <ele>458.59997558594</ele>
        <time>2019-05-16T09:55:38Z</time>
      </trkpt>
      <trkpt lat="44.27749" lon="3.22955">
        <ele>456.79998779297</ele>
        <time>2019-05-16T09:55:41Z</time>
      </trkpt>
      <trkpt lat="44.2775" lon="3.22962">
        <ele>455.59997558594</ele>
        <time>2019-05-16T09:55:44Z</time>
      </trkpt>
      <trkpt lat="44.27751" lon="3.22967">
        <ele>454.79998779297</ele>
        <time>2019-05-16T09:55:46Z</time>
      </trkpt>
      <trkpt lat="44.27757" lon="3.22976">
        <ele>453.59997558594</ele>
        <time>2019-05-16T09:55:49Z</time>
      </trkpt>
      <trkpt lat="44.2776" lon="3.22979">
        <ele>453.20001220703</ele>
        <time>2019-05-16T09:55:50Z</time>
      </trkpt>
      <trkpt lat="44.27765" lon="3.22986">
        <ele>452</ele>
        <time>2019-05-16T09:55:52Z</time>
      </trkpt>
      <trkpt lat="44.2777" lon="3.22991">
        <ele>451</ele>
        <time>2019-05-16T09:55:54Z</time>
      </trkpt>
      <trkpt lat="44.27775" lon="3.22998">
        <ele>449.40002441406</ele>
        <time>2019-05-16T09:55:57Z</time>
      </trkpt>
      <trkpt lat="44.27779" lon="3.23002">
        <ele>448.20001220703</ele>
        <time>2019-05-16T09:55:59Z</time>
      </trkpt>
      <trkpt lat="44.27782" lon="3.23007">
        <ele>446.79998779297</ele>
        <time>2019-05-16T09:56:01Z</time>
      </trkpt>
      <trkpt lat="44.27786" lon="3.2301">
        <ele>445.40002441406</ele>
        <time>2019-05-16T09:56:03Z</time>
      </trkpt>
      <trkpt lat="44.27789" lon="3.23009">
        <ele>444</ele>
        <time>2019-05-16T09:56:05Z</time>
      </trkpt>
      <trkpt lat="44.2779" lon="3.23002">
        <ele>442.40002441406</ele>
        <time>2019-05-16T09:56:07Z</time>
      </trkpt>
      <trkpt lat="44.27796" lon="3.22987">
        <ele>441.59997558594</ele>
        <time>2019-05-16T09:56:11Z</time>
      </trkpt>
      <trkpt lat="44.27802" lon="3.22983">
        <ele>440.79998779297</ele>
        <time>2019-05-16T09:56:17Z</time>
      </trkpt>
      <trkpt lat="44.27805" lon="3.22981">
        <ele>439.79998779297</ele>
        <time>2019-05-16T09:56:32Z</time>
      </trkpt>
      <trkpt lat="44.27809" lon="3.22979">
        <ele>437.40002441406</ele>
        <time>2019-05-16T09:57:22Z</time>
      </trkpt>
      <trkpt lat="44.27809" lon="3.22979">
        <ele>437.40002441406</ele>
        <time>2019-05-16T09:57:24Z</time>
      </trkpt>
    </trkseg>
  </trk>
</gpx>